createdAt,value
2018-07-19T00:01:30.827Z,4.83
2018-07-19T00:03:59.909Z,5.10
2018-07-19T00:06:28.921Z,4.37
2018-07-19T00:08:57.996Z,4.73
2018-07-19T00:11:27.072Z,4.60
2018-07-19T00:13:56.110Z,5.13
2018-07-19T00:16:25.192Z,4.63
2018-07-19T00:18:54.253Z,4.90
2018-07-19T00:21:23.368Z,4.53
2018-07-19T00:23:52.344Z,4.53
2018-07-19T00:26:21.371Z,4.73
2018-07-19T00:28:50.397Z,4.40
2018-07-19T00:31:19.429Z,4.27
2018-07-19T00:33:48.538Z,4.63
2018-07-19T00:36:17.681Z,4.43
2018-07-19T00:38:46.729Z,5.20
2018-07-19T00:41:15.796Z,4.87
2018-07-19T00:43:44.789Z,5.20
2018-07-19T00:46:13.820Z,5.67
2018-07-19T00:48:42.846Z,4.40
2018-07-19T00:51:11.881Z,5.77
2018-07-19T00:53:40.913Z,4.63
2018-07-19T00:56:09.981Z,5.60
2018-07-19T00:58:39.008Z,4.93
2018-07-19T01:01:08.101Z,4.50
2018-07-19T01:03:37.112Z,5.77
2018-07-19T01:06:06.190Z,4.70
2018-07-19T01:08:35.249Z,5.00
2018-07-19T01:11:04.340Z,5.73
2018-07-19T01:13:33.373Z,5.43
2018-07-19T01:16:02.406Z,4.43
2018-07-19T01:18:31.490Z,5.10
2018-07-19T01:21:00.580Z,4.97
2018-07-19T01:23:29.589Z,5.20
2018-07-19T01:25:58.627Z,4.30
2018-07-19T01:28:27.636Z,3.90
2018-07-19T01:30:56.798Z,5.17
2018-07-19T01:33:25.829Z,4.53
2018-07-19T01:35:54.868Z,5.43
2018-07-19T01:38:23.901Z,4.60
2018-07-19T01:40:52.890Z,5.20
2018-07-19T01:43:21.997Z,4.63
2018-07-19T01:45:51.007Z,5.03
2018-07-19T01:48:20.025Z,5.70
2018-07-19T01:50:49.056Z,4.60
2018-07-19T01:53:18.178Z,4.40
2018-07-19T01:55:47.193Z,6.03
2018-07-19T01:58:16.160Z,5.77
2018-07-19T02:00:45.173Z,5.73
2018-07-19T02:03:14.141Z,5.17
2018-07-19T02:05:43.220Z,5.70
2018-07-19T02:08:12.291Z,5.57
2018-07-19T02:10:41.268Z,5.50
2018-07-19T02:13:10.264Z,4.70
2018-07-19T02:15:39.231Z,5.00
2018-07-19T02:18:08.301Z,4.83
2018-07-19T02:20:37.288Z,5.20
2018-07-19T02:23:06.587Z,5.20
2018-07-19T02:25:35.669Z,4.97
2018-07-19T02:28:04.748Z,5.10
2018-07-19T02:30:33.741Z,5.27
2018-07-19T02:33:02.781Z,4.73
2018-07-19T02:35:31.745Z,5.50
2018-07-19T02:38:00.747Z,4.80
2018-07-19T02:40:29.888Z,5.00
2018-07-19T02:42:58.897Z,5.00
2018-07-19T02:45:27.900Z,5.63
2018-07-19T02:47:56.884Z,5.50
2018-07-19T02:50:25.933Z,5.40
2018-07-19T02:52:54.903Z,5.47
2018-07-19T02:55:23.868Z,5.43
2018-07-19T02:57:52.988Z,5.30
2018-07-19T03:00:22.082Z,4.77
2018-07-19T03:02:51.112Z,5.03
2018-07-19T03:05:20.205Z,4.53
2018-07-19T03:07:49.315Z,4.10
2018-07-19T03:10:18.333Z,4.33
2018-07-19T03:12:47.365Z,5.20
2018-07-19T03:15:16.510Z,4.37
2018-07-19T03:17:45.581Z,4.10
2018-07-19T03:20:14.559Z,5.00
2018-07-19T03:22:43.547Z,4.13
2018-07-19T03:25:12.581Z,5.20
2018-07-19T03:27:41.585Z,6.00
2018-07-19T03:30:10.552Z,4.23
2018-07-19T03:32:39.570Z,5.70
2018-07-19T03:35:08.622Z,9.13
2018-07-19T03:37:37.645Z,6.43
2018-07-19T03:40:06.683Z,4.53
2018-07-19T03:42:35.716Z,4.23
2018-07-19T03:45:04.830Z,4.47
2018-07-19T03:47:33.828Z,4.77
2018-07-19T03:50:02.948Z,4.67
2018-07-19T03:52:31.935Z,4.90
2018-07-19T03:55:00.923Z,4.20
2018-07-19T03:57:29.937Z,4.23
2018-07-19T03:59:58.945Z,5.20
2018-07-19T04:02:27.960Z,5.10
2018-07-19T04:04:56.916Z,4.70
2018-07-19T04:07:26.057Z,4.50
2018-07-19T04:09:55.037Z,4.93
2018-07-19T04:12:24.063Z,5.00
2018-07-19T04:14:53.377Z,4.90
2018-07-19T04:17:22.464Z,4.50
2018-07-19T04:19:51.524Z,3.73
2018-07-19T04:22:20.520Z,3.90
2018-07-19T04:24:50.551Z,3.30
2018-07-19T04:27:19.675Z,4.03
2018-07-19T04:29:48.652Z,3.33
2018-07-19T04:32:17.677Z,4.33
2018-07-19T04:34:46.767Z,4.53
2018-07-19T04:37:15.864Z,4.00
2018-07-19T04:39:44.935Z,4.13
2018-07-19T04:42:14.046Z,4.17
2018-07-19T04:44:43.054Z,4.27
2018-07-19T04:47:12.093Z,4.20
2018-07-19T04:49:41.165Z,3.27
2018-07-19T04:52:10.321Z,4.10
2018-07-19T04:54:39.454Z,3.90
2018-07-19T04:57:08.454Z,4.27
2018-07-19T04:59:37.492Z,3.53
2018-07-19T05:02:06.761Z,4.17
2018-07-19T05:04:35.824Z,4.37
2018-07-19T05:07:04.957Z,4.40
2018-07-19T05:09:34.040Z,4.70
2018-07-19T05:12:03.094Z,4.50
2018-07-19T05:14:32.204Z,4.33
2018-07-19T05:17:01.244Z,4.17
2018-07-19T05:19:30.336Z,4.27
2018-07-19T05:21:59.355Z,3.30
2018-07-19T05:24:28.515Z,3.37
2018-07-19T05:26:57.555Z,3.90
2018-07-19T05:29:26.693Z,3.57
2018-07-19T05:31:55.765Z,3.60
2018-07-19T05:34:24.782Z,3.30
2018-07-19T05:36:53.824Z,3.17
2018-07-19T05:39:22.804Z,2.93
2018-07-19T05:41:51.844Z,3.07
2018-07-19T05:44:20.892Z,3.37
2018-07-19T05:46:49.960Z,4.10
2018-07-19T05:49:19.053Z,3.80
2018-07-19T05:51:48.096Z,4.10
2018-07-19T05:54:17.115Z,4.43
2018-07-19T05:56:46.184Z,5.00
2018-07-19T05:59:15.232Z,3.90
2018-07-19T06:01:44.269Z,4.27
2018-07-19T06:04:13.424Z,3.53
2018-07-19T06:06:42.437Z,3.70
2018-07-19T06:09:12.143Z,3.60
2018-07-19T06:11:41.528Z,3.73
2018-07-19T06:14:10.540Z,3.50
2018-07-19T06:20:11.674Z,4.37
2018-07-19T06:22:40.713Z,4.20
2018-07-19T06:25:09.721Z,4.30
2018-07-19T06:27:38.816Z,4.70
2018-07-19T06:30:08.264Z,3.80
2018-07-19T06:32:37.429Z,3.90
2018-07-19T06:35:06.531Z,4.67
2018-07-19T06:37:35.569Z,3.80
2018-07-19T06:40:05.124Z,4.60
2018-07-19T06:42:34.148Z,4.60
2018-07-19T06:45:03.313Z,3.70
2018-07-19T06:47:32.369Z,3.83
2018-07-19T06:50:01.436Z,3.50
2018-07-19T06:52:30.420Z,4.03
2018-07-19T06:54:59.465Z,4.07
2018-07-19T06:57:28.542Z,4.37
2018-07-19T06:59:57.550Z,3.70
2018-07-19T07:02:26.690Z,4.20
2018-07-19T07:04:55.656Z,3.70
2018-07-19T07:07:24.636Z,3.93
2018-07-19T07:09:53.613Z,3.13
2018-07-19T07:12:22.604Z,3.73
2018-07-19T07:14:51.701Z,3.60
2018-07-19T07:17:20.669Z,3.60
2018-07-19T07:19:49.779Z,3.37
2018-07-19T07:22:18.774Z,4.40
2018-07-19T07:24:47.745Z,2.50
2018-07-19T07:27:16.772Z,3.00
2018-07-19T07:29:45.751Z,3.17
2018-07-19T07:32:14.859Z,3.27
2018-07-19T07:34:43.940Z,2.83
2018-07-19T07:37:13.038Z,3.23
2018-07-19T07:39:42.111Z,2.73
2018-07-19T07:42:11.170Z,3.30
2018-07-19T07:44:40.325Z,3.50
2018-07-19T07:47:09.307Z,2.60
2018-07-19T07:49:38.358Z,2.90
2018-07-19T07:52:07.356Z,3.00
2018-07-19T07:54:36.334Z,3.00
2018-07-19T07:57:05.344Z,2.87
2018-07-19T07:59:34.357Z,3.33
2018-07-19T08:02:03.460Z,3.27
2018-07-19T08:04:32.496Z,3.77
2018-07-19T08:07:01.465Z,3.47
2018-07-19T08:09:30.444Z,3.30
2018-07-19T08:11:59.529Z,2.97
2018-07-19T08:14:28.503Z,2.90
2018-07-19T08:16:57.521Z,2.90
2018-07-19T08:19:26.619Z,3.03
2018-07-19T08:21:55.786Z,2.60
2018-07-19T08:24:24.803Z,2.80
2018-07-19T08:26:53.808Z,2.20
2018-07-19T08:29:22.830Z,2.07
2018-07-19T08:31:51.904Z,2.30
2018-07-19T08:34:20.876Z,2.20
2018-07-19T08:36:50.009Z,2.67
2018-07-19T08:39:18.989Z,2.17
2018-07-19T08:41:47.980Z,2.40
2018-07-19T08:44:17.033Z,3.17
2018-07-19T08:46:46.089Z,2.30
2018-07-19T08:49:15.501Z,2.50
2018-07-19T08:51:44.525Z,2.20
2018-07-19T08:54:13.522Z,2.50
2018-07-19T08:56:42.597Z,2.40
2018-07-19T08:59:11.579Z,2.07
2018-07-19T09:01:40.580Z,2.90
2018-07-19T09:04:09.656Z,2.63
2018-07-19T09:06:38.627Z,2.73
2018-07-19T09:09:09.149Z,2.63
2018-07-19T09:11:38.325Z,3.20
2018-07-19T09:14:07.403Z,2.50
2018-07-19T09:16:36.396Z,2.80
2018-07-19T09:19:05.424Z,2.50
2018-07-19T09:21:34.409Z,2.90
2018-07-19T09:24:03.453Z,2.50
2018-07-19T09:26:32.585Z,3.13
2018-07-19T09:29:01.512Z,2.73
2018-07-19T09:31:30.613Z,2.77
2018-07-19T09:33:59.685Z,2.47
2018-07-19T09:36:28.762Z,2.87
2018-07-19T09:38:57.796Z,2.67
2018-07-19T09:41:26.799Z,2.90
2018-07-19T09:43:55.980Z,2.10
2018-07-19T09:46:25.003Z,2.30
2018-07-19T09:48:54.044Z,2.30
2018-07-19T09:51:23.020Z,2.23
2018-07-19T09:53:52.112Z,2.13
2018-07-19T09:56:21.168Z,1.93
2018-07-19T09:58:50.120Z,2.20
2018-07-19T10:01:19.782Z,2.00
2018-07-19T10:03:50.191Z,1.93
2018-07-19T10:06:19.223Z,1.80
2018-07-19T10:08:48.237Z,1.50
2018-07-19T10:11:17.309Z,2.20
2018-07-19T10:13:46.832Z,1.90
2018-07-19T10:16:15.879Z,1.47
2018-07-19T10:18:45.074Z,1.80
2018-07-19T10:21:14.116Z,1.70
2018-07-19T10:23:43.221Z,1.77
2018-07-19T10:26:12.297Z,1.73
2018-07-19T10:28:41.478Z,1.93
2018-07-19T10:31:10.463Z,1.80
2018-07-19T10:33:39.573Z,1.57
2018-07-19T10:36:08.540Z,1.60
2018-07-19T10:38:37.565Z,1.40
2018-07-19T10:41:06.572Z,1.47
2018-07-19T10:43:35.561Z,1.60
2018-07-19T10:46:04.671Z,1.70
2018-07-19T10:48:33.704Z,2.20
2018-07-19T10:51:02.693Z,1.90
2018-07-19T10:53:31.713Z,1.83
2018-07-19T10:56:00.802Z,1.77
2018-07-19T10:58:29.833Z,1.80
2018-07-19T11:00:58.842Z,1.30
2018-07-19T11:03:27.837Z,1.20
2018-07-19T11:05:56.866Z,2.20
2018-07-19T11:08:25.949Z,1.70
2018-07-19T11:10:54.943Z,1.50
2018-07-19T11:13:24.004Z,1.30
2018-07-19T11:15:52.976Z,1.47
2018-07-19T11:18:22.041Z,1.30
2018-07-19T11:20:51.047Z,1.50
2018-07-19T11:23:20.130Z,1.80
2018-07-19T11:25:49.118Z,1.70
2018-07-19T11:28:18.091Z,1.83
2018-07-19T11:30:47.169Z,1.60
2018-07-19T11:33:16.192Z,1.57
2018-07-19T11:35:45.268Z,1.63
2018-07-19T11:38:14.342Z,1.67
2018-07-19T11:40:43.405Z,1.77
2018-07-19T11:43:12.380Z,2.10
2018-07-19T11:45:41.336Z,1.70
2018-07-19T11:48:10.304Z,2.13
2018-07-19T11:50:39.324Z,1.87
2018-07-19T11:53:08.365Z,2.07
2018-07-19T11:55:37.344Z,2.37
2018-07-19T11:58:06.469Z,2.07
2018-07-19T12:00:35.516Z,1.60
2018-07-19T12:03:04.573Z,2.20
2018-07-19T12:05:33.589Z,1.67
2018-07-19T12:08:02.543Z,2.10
2018-07-19T12:10:31.518Z,2.10
2018-07-19T12:13:00.481Z,2.20
2018-07-19T12:15:29.457Z,2.60
2018-07-19T12:17:58.405Z,2.07
2018-07-19T12:20:27.439Z,2.30
2018-07-19T12:22:56.408Z,2.00
2018-07-19T12:25:25.677Z,2.40
2018-07-19T12:27:54.796Z,2.00
2018-07-19T12:30:23.861Z,2.17
2018-07-19T12:32:52.832Z,2.00
2018-07-19T12:35:21.780Z,2.50
2018-07-19T12:37:50.869Z,2.10
2018-07-19T12:40:19.939Z,2.30
2018-07-19T12:42:48.974Z,1.93
2018-07-19T12:45:17.977Z,2.20
2018-07-19T12:47:47.201Z,1.70
2018-07-19T12:50:16.274Z,1.80
2018-07-19T12:52:45.240Z,2.00
2018-07-19T12:55:14.228Z,1.80
2018-07-19T12:57:43.336Z,1.70
2018-07-19T13:00:12.408Z,1.60
2018-07-19T13:02:41.409Z,2.00
2018-07-19T13:05:10.491Z,1.70
2018-07-19T13:07:39.521Z,2.20
2018-07-19T13:10:08.520Z,1.80
2018-07-19T13:12:37.513Z,1.67
2018-07-19T13:15:07.228Z,1.93
2018-07-19T13:17:36.320Z,1.83
2018-07-19T13:20:05.688Z,1.90
2018-07-19T13:22:34.661Z,1.90
2018-07-19T13:25:03.699Z,2.33
2018-07-19T13:27:32.755Z,2.60
2018-07-19T13:30:01.769Z,2.80
2018-07-19T13:32:30.776Z,2.97
2018-07-19T13:34:59.805Z,2.10
2018-07-19T13:37:28.825Z,2.57
2018-07-19T13:39:57.800Z,2.80
2018-07-19T13:42:26.749Z,2.30
2018-07-19T13:44:55.812Z,3.63
2018-07-19T13:47:24.821Z,3.40
2018-07-19T13:49:53.786Z,5.70
2018-07-19T13:52:33.632Z,3.40
2018-07-19T13:55:02.656Z,4.20
2018-07-19T13:57:31.716Z,3.90
2018-07-19T14:00:00.752Z,3.57
2018-07-19T14:02:29.868Z,2.87
2018-07-19T14:04:58.829Z,2.97
2018-07-19T14:07:27.975Z,3.27
2018-07-19T14:09:56.989Z,3.63
2018-07-19T14:12:26.078Z,3.93
2018-07-19T14:14:55.033Z,3.63
2018-07-19T14:17:23.969Z,3.40
2018-07-19T14:19:53.092Z,3.70
2018-07-19T14:22:22.053Z,4.50
2018-07-19T14:24:51.017Z,3.90
2018-07-19T14:27:19.969Z,3.03
2018-07-19T14:29:48.928Z,3.63
2018-07-19T14:32:17.959Z,4.10
2018-07-19T14:34:46.964Z,4.10
2018-07-19T14:37:15.992Z,4.80
2018-07-19T14:39:45.020Z,4.13
2018-07-19T14:42:13.993Z,4.63
2018-07-19T14:44:43.036Z,5.90
2018-07-19T14:47:12.000Z,5.47
2018-07-19T14:49:41.061Z,7.30
2018-07-19T14:52:10.077Z,7.50
2018-07-19T14:54:39.108Z,7.73
2018-07-19T14:57:08.206Z,7.00
2018-07-19T14:59:37.292Z,6.30
2018-07-19T15:02:06.317Z,6.43
2018-07-19T15:04:35.433Z,4.57
2018-07-19T15:07:04.461Z,5.10
2018-07-19T15:09:33.488Z,5.37
2018-07-19T15:12:02.485Z,4.10
2018-07-19T15:14:31.479Z,4.43
2018-07-19T15:17:00.509Z,6.57
2018-07-19T15:19:29.529Z,4.80
2018-07-19T15:21:58.670Z,3.40
2018-07-19T15:24:27.693Z,4.63
2018-07-19T15:26:56.674Z,4.50
2018-07-19T15:29:25.714Z,4.43
2018-07-19T15:31:54.665Z,4.07
2018-07-19T15:34:23.710Z,3.83
2018-07-19T15:36:52.773Z,5.10
2018-07-19T15:39:21.797Z,5.67
2018-07-19T15:41:50.777Z,4.10
2018-07-19T15:44:19.896Z,5.40
2018-07-19T15:46:48.859Z,4.90
2018-07-19T15:49:17.792Z,5.27
2018-07-19T15:51:46.957Z,4.50
2018-07-19T15:54:15.908Z,4.00
2018-07-19T15:56:44.876Z,4.00
2018-07-19T15:59:13.829Z,4.13
2018-07-19T16:01:42.796Z,4.13
2018-07-19T16:04:12.122Z,4.60
2018-07-19T16:06:41.195Z,4.40
2018-07-19T16:09:11.913Z,4.60
2018-07-19T16:11:41.065Z,4.03
2018-07-19T16:14:10.032Z,3.47
2018-07-19T16:16:38.975Z,3.47
2018-07-19T16:19:08.073Z,3.90
2018-07-19T16:21:37.105Z,3.13
2018-07-19T16:24:06.124Z,4.17
2018-07-19T16:26:35.193Z,5.03
2018-07-19T16:29:04.225Z,4.63
2018-07-19T16:31:33.168Z,5.67
2018-07-19T16:34:02.137Z,6.37
2018-07-19T16:36:31.111Z,5.90
2018-07-19T16:39:00.191Z,6.20
2018-07-19T16:41:29.301Z,6.70
2018-07-19T16:43:58.257Z,5.33
2018-07-19T16:46:27.235Z,8.50
2018-07-19T16:48:56.219Z,5.80
2018-07-19T16:51:25.354Z,5.57
2018-07-19T16:53:54.305Z,4.80
2018-07-19T16:56:23.324Z,5.20
2018-07-19T16:58:52.295Z,4.57
2018-07-19T17:01:21.332Z,3.70
2018-07-19T17:03:50.364Z,3.93
2018-07-19T17:06:19.432Z,7.30
2018-07-19T17:08:49.487Z,5.50
2018-07-19T17:11:18.467Z,5.30
2018-07-19T17:13:47.480Z,4.30
2018-07-19T17:16:16.653Z,3.90
2018-07-19T17:18:45.722Z,3.93
2018-07-19T17:21:14.798Z,3.87
2018-07-19T17:23:43.746Z,3.10
2018-07-19T17:26:12.775Z,3.60
2018-07-19T17:28:41.845Z,3.90
2018-07-19T17:31:10.957Z,3.70
2018-07-19T17:33:39.960Z,4.20
2018-07-19T17:36:09.052Z,4.67
2018-07-19T17:38:38.075Z,4.33
2018-07-19T17:41:07.349Z,4.33
2018-07-19T17:43:36.397Z,4.33
2018-07-19T17:46:05.464Z,4.40
2018-07-19T17:48:34.428Z,4.10
2018-07-19T17:51:06.365Z,4.07
2018-07-19T17:53:36.258Z,4.60
2018-07-19T17:56:05.275Z,4.73
2018-07-19T17:58:36.758Z,4.13
2018-07-19T18:01:05.912Z,4.70
2018-07-19T18:03:35.701Z,4.30
2018-07-19T18:06:04.720Z,5.37
2018-07-19T18:08:34.020Z,6.73
2018-07-19T18:11:03.076Z,6.37
2018-07-19T18:13:32.155Z,5.80
2018-07-19T18:16:01.210Z,7.07
2018-07-19T18:18:30.385Z,6.87
2018-07-19T18:20:59.465Z,7.70
2018-07-19T18:23:28.512Z,7.00
2018-07-19T18:25:57.551Z,7.40
2018-07-19T18:28:26.528Z,6.93
2018-07-19T18:30:55.577Z,6.90
2018-07-19T18:33:24.630Z,7.20
2018-07-19T18:35:53.661Z,7.33
2018-07-19T18:38:24.196Z,6.63
2018-07-19T18:40:53.190Z,6.70
2018-07-19T18:43:22.869Z,7.90
2018-07-19T18:45:51.904Z,8.30
2018-07-19T18:48:20.900Z,8.03
2018-07-19T18:50:50.141Z,8.63
2018-07-19T18:53:19.152Z,8.73
2018-07-19T18:55:48.262Z,10.00
2018-07-19T18:58:17.308Z,10.77
2018-07-19T19:00:46.323Z,8.33
2018-07-19T19:03:15.288Z,8.10
2018-07-19T19:05:44.360Z,7.30
2018-07-19T19:08:13.345Z,7.37
2018-07-19T19:10:42.300Z,9.40
2018-07-19T19:13:17.822Z,7.90
2018-07-19T19:15:46.984Z,7.53
2018-07-19T19:18:15.979Z,6.03
2018-07-19T19:20:44.956Z,7.03
2018-07-19T19:23:13.948Z,6.13
2018-07-19T19:25:43.010Z,6.23
2018-07-19T19:28:12.121Z,7.00
2018-07-19T19:30:41.102Z,7.20
2018-07-19T19:33:10.139Z,6.70
2018-07-19T19:35:39.176Z,6.70
2018-07-19T19:38:08.203Z,6.97
2018-07-19T19:40:37.253Z,7.10
2018-07-19T19:43:06.457Z,7.60
2018-07-19T19:45:35.617Z,6.40
2018-07-19T19:48:04.645Z,6.47
2018-07-19T19:50:33.689Z,7.00
2018-07-19T19:53:02.768Z,6.90
2018-07-19T19:55:31.753Z,7.73
2018-07-19T19:58:00.732Z,7.17
2018-07-19T20:00:29.774Z,8.93
2018-07-19T20:02:58.914Z,10.47
2018-07-19T20:05:27.974Z,9.80
2018-07-19T20:07:57.131Z,10.90
2018-07-19T20:10:26.161Z,9.30
2018-07-19T20:12:55.204Z,9.07
2018-07-19T20:15:24.205Z,11.00
2018-07-19T20:17:53.230Z,9.70
2018-07-19T20:20:22.225Z,11.77
2018-07-19T20:22:51.303Z,10.20
2018-07-19T20:25:20.376Z,10.10
2018-07-19T20:27:49.392Z,10.83
2018-07-19T20:30:18.429Z,10.80
2018-07-19T20:32:47.412Z,11.27
2018-07-19T20:35:16.441Z,10.33
2018-07-19T20:37:45.476Z,9.73
2018-07-19T20:40:14.469Z,9.63
2018-07-19T20:42:43.462Z,10.33
2018-07-19T20:45:12.424Z,9.83
2018-07-19T20:47:41.452Z,11.87
2018-07-19T20:50:10.456Z,11.07
2018-07-19T20:52:39.544Z,13.60
2018-07-19T20:55:09.140Z,14.97
2018-07-19T20:57:38.696Z,13.60
2018-07-19T21:00:08.077Z,13.10
2018-07-19T21:02:37.085Z,12.70
2018-07-19T21:05:06.201Z,11.33
2018-07-19T21:07:35.240Z,10.73
2018-07-19T21:10:04.343Z,11.80
2018-07-19T21:12:33.263Z,11.70
2018-07-19T21:15:02.272Z,11.33
2018-07-19T21:17:31.316Z,11.67
2018-07-19T21:20:00.309Z,11.27
2018-07-19T21:22:29.336Z,12.27
2018-07-19T21:24:58.352Z,11.20
2018-07-19T21:27:27.312Z,10.33
2018-07-19T21:29:56.268Z,10.97
2018-07-19T21:32:25.227Z,10.87
2018-07-19T21:34:54.281Z,10.90
2018-07-19T21:37:23.349Z,11.20
2018-07-19T21:39:52.492Z,13.03
2018-07-19T21:42:21.443Z,10.50
2018-07-19T21:44:50.464Z,10.70
2018-07-19T21:47:19.472Z,11.37
2018-07-19T21:49:48.439Z,11.63
2018-07-19T21:52:17.552Z,12.00
2018-07-19T21:54:46.581Z,10.13
2018-07-19T21:57:15.539Z,11.20
2018-07-19T21:59:44.608Z,11.03
2018-07-19T22:02:15.041Z,12.47
2018-07-19T22:04:44.236Z,12.40
2018-07-19T22:07:13.296Z,11.50
2018-07-19T22:09:42.479Z,12.30
2018-07-19T22:12:11.437Z,12.70
2018-07-19T22:14:40.400Z,12.23
2018-07-19T22:17:09.358Z,11.30
2018-07-19T22:19:38.458Z,10.90
2018-07-19T22:22:07.470Z,12.13
2018-07-19T22:24:36.447Z,10.87
2018-07-19T22:27:05.416Z,11.00
2018-07-19T22:29:34.382Z,10.80
2018-07-19T22:32:03.324Z,10.00
2018-07-19T22:34:32.387Z,9.90
2018-07-19T22:37:01.337Z,10.37
2018-07-19T22:39:30.397Z,9.90
2018-07-19T22:41:59.462Z,8.77
2018-07-19T22:44:28.421Z,9.23
2018-07-19T22:46:57.461Z,9.50
2018-07-19T22:49:26.416Z,9.30
2018-07-19T22:51:55.475Z,10.70
2018-07-19T22:54:24.573Z,10.50
2018-07-19T22:56:53.710Z,9.77
2018-07-19T22:59:22.674Z,9.67
2018-07-19T23:01:51.697Z,9.40
2018-07-19T23:04:20.748Z,9.70
2018-07-19T23:06:49.781Z,10.20
2018-07-19T23:09:18.921Z,9.57
2018-07-19T23:11:47.959Z,9.27
2018-07-19T23:14:17.000Z,10.27
2018-07-19T23:16:46.074Z,11.23
2018-07-19T23:19:15.107Z,11.63
2018-07-19T23:21:44.174Z,9.67
2018-07-19T23:24:13.139Z,10.10
2018-07-19T23:26:42.221Z,10.10
2018-07-19T23:29:11.390Z,10.43
2018-07-19T23:31:40.474Z,9.60
2018-07-19T23:34:09.532Z,11.50
2018-07-19T23:36:56.448Z,11.80
2018-07-19T23:39:30.096Z,11.17
2018-07-19T23:42:06.473Z,12.20
2018-07-19T23:44:43.741Z,10.80
2018-07-19T23:47:16.812Z,11.47
2018-07-19T23:49:45.849Z,11.20
2018-07-19T23:52:14.876Z,11.77
2018-07-19T23:54:43.823Z,12.27
2018-07-19T23:57:12.786Z,10.80
2018-07-19T23:59:41.819Z,12.63
